createdAt,value
2022-11-10T00:01:39.722Z,4.00
2022-11-10T00:04:08.294Z,3.87
2022-11-10T00:06:36.687Z,3.23
2022-11-10T00:09:05.356Z,3.43
2022-11-10T00:11:35.841Z,2.90
2022-11-10T00:14:21.402Z,3.50
2022-11-10T00:17:05.828Z,3.87
2022-11-10T00:19:36.220Z,2.87
2022-11-10T00:22:04.666Z,3.30
2022-11-10T00:24:33.928Z,5.03
2022-11-10T00:27:04.152Z,2.87
2022-11-10T00:29:32.478Z,2.90
2022-11-10T00:32:00.480Z,3.33
2022-11-10T00:34:28.570Z,3.07
2022-11-10T00:36:56.731Z,3.07
2022-11-10T00:39:24.656Z,2.97
2022-11-10T00:41:53.773Z,3.50
2022-11-10T00:44:25.285Z,3.87
2022-11-10T00:46:58.977Z,3.50
2022-11-10T00:49:38.159Z,3.40
2022-11-10T00:52:10.578Z,3.23
2022-11-10T00:54:38.525Z,3.03
2022-11-10T00:57:06.651Z,3.00
2022-11-10T00:59:37.883Z,3.27
2022-11-10T01:02:06.017Z,3.23
2022-11-10T01:04:34.311Z,3.53
2022-11-10T01:07:02.835Z,3.60
2022-11-10T01:09:33.103Z,3.20
2022-11-10T01:12:01.226Z,3.50
2022-11-10T01:14:29.730Z,3.47
2022-11-10T01:16:59.910Z,3.83
2022-11-10T01:19:29.176Z,3.63
2022-11-10T01:21:58.162Z,3.77
2022-11-10T01:24:28.195Z,3.90
2022-11-10T01:26:56.238Z,4.13
2022-11-10T01:29:25.829Z,4.07
2022-11-10T01:31:58.934Z,4.00
2022-11-10T01:34:27.183Z,3.53
2022-11-10T01:36:55.495Z,3.90
2022-11-10T01:39:24.005Z,4.23
2022-11-10T01:41:52.294Z,4.10
2022-11-10T01:44:23.019Z,4.60
2022-11-10T01:46:51.873Z,3.57
2022-11-10T01:49:25.680Z,3.97
2022-11-10T01:51:58.849Z,4.70
2022-11-10T01:54:29.390Z,4.10
2022-11-10T01:57:03.248Z,4.53
2022-11-10T01:59:34.025Z,4.30
2022-11-10T02:02:13.714Z,4.20
2022-11-10T02:04:44.673Z,4.30
2022-11-10T02:07:14.517Z,4.00
2022-11-10T02:09:42.942Z,4.03
2022-11-10T02:12:11.546Z,4.07
2022-11-10T02:14:40.309Z,4.20
2022-11-10T02:17:08.512Z,4.57
2022-11-10T02:19:43.396Z,4.83
2022-11-10T02:22:13.806Z,4.80
2022-11-10T02:24:41.863Z,4.93
2022-11-10T02:27:11.834Z,5.60
2022-11-10T02:29:40.508Z,5.50
2022-11-10T02:32:10.771Z,5.80
2022-11-10T02:34:38.902Z,4.40
2022-11-10T02:37:09.323Z,4.60
2022-11-10T02:39:39.342Z,5.07
2022-11-10T02:42:10.445Z,4.03
2022-11-10T02:44:39.022Z,4.43
2022-11-10T02:47:07.534Z,4.30
2022-11-10T02:49:36.309Z,4.47
2022-11-10T02:52:04.562Z,4.80
2022-11-10T02:54:34.022Z,4.70
2022-11-10T02:57:04.064Z,4.07
2022-11-10T02:59:32.451Z,4.30
2022-11-10T03:02:00.513Z,4.37
2022-11-10T03:04:28.756Z,4.00
2022-11-10T03:06:57.336Z,3.90
2022-11-10T03:09:25.654Z,4.33
2022-11-10T03:11:53.964Z,4.77
2022-11-10T03:14:23.621Z,4.60
2022-11-10T03:16:51.987Z,4.10
2022-11-10T03:19:20.190Z,4.47
2022-11-10T03:21:48.438Z,4.77
2022-11-10T03:24:16.690Z,5.30
2022-11-10T03:26:45.060Z,4.60
2022-11-10T03:29:13.634Z,3.90
2022-11-10T03:31:43.178Z,4.33
2022-11-10T03:34:11.564Z,5.30
2022-11-10T03:36:40.018Z,4.47
2022-11-10T03:39:08.603Z,4.30
2022-11-10T03:41:36.597Z,4.40
2022-11-10T03:44:06.196Z,4.47
2022-11-10T03:46:34.437Z,5.30
2022-11-10T03:49:07.202Z,4.40
2022-11-10T03:51:35.367Z,4.80
2022-11-10T03:54:03.655Z,4.57
2022-11-10T03:56:32.198Z,4.40
2022-11-10T03:59:00.617Z,5.20
2022-11-10T04:01:29.010Z,5.10
2022-11-10T04:03:58.214Z,5.30
2022-11-10T04:06:45.595Z,5.73
2022-11-10T04:09:16.696Z,5.87
2022-11-10T04:12:02.318Z,5.70
2022-11-10T04:14:47.614Z,4.97
2022-11-10T04:17:16.070Z,5.33
2022-11-10T04:19:44.862Z,5.20
2022-11-10T04:22:34.890Z,5.93
2022-11-10T04:25:02.870Z,5.33
2022-11-10T04:27:31.211Z,5.70
2022-11-10T04:29:59.467Z,5.53
2022-11-10T04:32:27.826Z,5.57
2022-11-10T04:34:56.105Z,6.13
2022-11-10T04:37:26.110Z,5.60
2022-11-10T04:39:54.464Z,5.87
2022-11-10T04:42:22.849Z,6.10
2022-11-10T04:44:51.090Z,5.60
2022-11-10T04:47:21.252Z,6.13
2022-11-10T04:49:49.286Z,6.23
2022-11-10T04:52:17.945Z,5.50
2022-11-10T04:54:47.974Z,6.47
2022-11-10T04:57:16.397Z,5.50
2022-11-10T04:59:45.408Z,5.50
2022-11-10T05:02:16.355Z,7.10
2022-11-10T05:04:44.874Z,6.77
2022-11-10T05:07:13.614Z,6.87
2022-11-10T05:09:42.147Z,6.40
2022-11-10T05:12:22.326Z,6.50
2022-11-10T05:14:50.898Z,6.80
2022-11-10T05:17:19.203Z,7.10
2022-11-10T05:19:48.389Z,6.47
2022-11-10T05:22:19.261Z,6.10
2022-11-10T05:24:47.543Z,6.90
2022-11-10T05:27:17.338Z,6.60
2022-11-10T05:29:45.756Z,6.73
2022-11-10T05:32:14.021Z,7.50
2022-11-10T05:34:42.349Z,5.93
2022-11-10T05:37:10.895Z,6.50
2022-11-10T05:39:39.254Z,6.17
2022-11-10T05:42:07.614Z,7.20
2022-11-10T05:44:37.514Z,6.53
2022-11-10T05:47:07.091Z,7.07
2022-11-10T05:49:36.042Z,7.53
2022-11-10T05:52:04.328Z,6.07
2022-11-10T05:54:33.028Z,7.40
2022-11-10T05:57:01.457Z,6.73
2022-11-10T05:59:29.975Z,7.27
2022-11-10T06:02:00.134Z,7.70
2022-11-10T06:04:28.590Z,6.53
2022-11-10T06:06:57.134Z,7.07
2022-11-10T06:09:25.431Z,6.20
2022-11-10T06:11:54.975Z,6.20
2022-11-10T06:56:16.536Z,8.37
2022-11-10T06:58:46.435Z,8.67
2022-11-10T07:01:19.922Z,8.30
2022-11-10T07:07:32.382Z,7.70
2022-11-10T07:10:06.731Z,8.37
2022-11-10T07:12:35.238Z,8.73
2022-11-10T07:15:05.622Z,9.03
2022-11-10T07:17:33.911Z,8.43
2022-11-10T07:20:02.081Z,8.57
2022-11-10T07:22:30.428Z,9.47
2022-11-10T07:24:59.864Z,8.20
2022-11-10T07:27:42.544Z,9.07
2022-11-10T07:30:12.129Z,9.33
2022-11-10T07:32:41.869Z,9.07
2022-11-10T07:35:11.133Z,8.50
2022-11-10T07:37:39.586Z,9.03
2022-11-10T07:40:09.163Z,8.87
2022-11-10T07:42:44.809Z,8.77
2022-11-10T07:45:13.147Z,8.23
2022-11-10T07:47:41.715Z,7.90
2022-11-10T07:50:11.460Z,9.07
2022-11-10T07:52:53.753Z,9.53
2022-11-10T07:55:21.992Z,8.30
2022-11-10T07:57:53.514Z,7.80
2022-11-10T08:00:22.025Z,7.57
2022-11-10T08:02:51.011Z,25.10
2022-11-10T08:05:19.481Z,9.07
2022-11-10T08:07:49.924Z,9.80
2022-11-10T08:10:19.481Z,8.37
2022-11-10T08:12:47.749Z,8.70
2022-11-10T08:15:17.690Z,7.40
2022-11-10T08:17:46.967Z,7.20
2022-11-10T08:20:15.792Z,6.50
2022-11-10T08:22:45.062Z,7.40
2022-11-10T08:25:13.466Z,6.90
2022-11-10T08:27:42.028Z,7.77
2022-11-10T08:30:11.278Z,7.20
2022-11-10T08:32:43.253Z,7.00
2022-11-10T08:35:11.566Z,7.57
2022-11-10T08:37:39.853Z,6.77
2022-11-10T08:40:09.943Z,7.17
2022-11-10T08:42:38.715Z,7.20
2022-11-10T08:45:08.354Z,6.30
2022-11-10T08:47:36.597Z,7.07
2022-11-10T08:50:07.971Z,7.10
2022-11-10T08:53:01.955Z,7.40
2022-11-10T08:55:30.694Z,6.50
2022-11-10T08:58:03.754Z,11.13
2022-11-10T09:00:33.261Z,6.83
2022-11-10T09:03:07.137Z,7.00
2022-11-10T09:05:37.295Z,7.27
2022-11-10T09:08:06.138Z,6.87
2022-11-10T09:10:36.173Z,8.20
2022-11-10T09:13:07.090Z,6.90
2022-11-10T09:15:36.761Z,5.83
2022-11-10T09:18:08.709Z,5.63
2022-11-10T09:21:33.698Z,6.80
2022-11-10T09:24:31.463Z,6.33
2022-11-10T09:27:02.118Z,6.40
2022-11-10T09:30:00.641Z,6.53
2022-11-10T09:32:28.974Z,6.33
2022-11-10T09:34:57.034Z,6.00
2022-11-10T09:45:04.428Z,6.40
2022-11-10T09:51:11.402Z,5.43
2022-11-10T09:53:49.308Z,6.53
2022-11-10T09:56:23.269Z,8.13
2022-11-10T09:58:52.267Z,5.73
2022-11-10T10:01:30.475Z,5.37
2022-11-10T10:04:14.506Z,6.17
2022-11-10T10:07:10.086Z,4.60
2022-11-10T10:09:48.076Z,6.10
2022-11-10T10:12:32.295Z,4.47
2022-11-10T10:15:16.383Z,4.60
2022-11-10T10:18:37.928Z,3.77
2022-11-10T10:21:32.240Z,4.40
2022-11-10T10:24:10.325Z,4.90
2022-11-10T10:26:44.969Z,4.40
2022-11-10T10:29:37.056Z,5.47
2022-11-10T10:32:13.019Z,5.60
2022-11-10T10:34:54.160Z,5.40
2022-11-10T10:37:39.999Z,5.10
2022-11-10T10:40:15.316Z,5.10
2022-11-10T10:42:43.810Z,5.73
2022-11-10T10:45:28.214Z,6.07
2022-11-10T10:48:01.816Z,5.30
2022-11-10T10:50:34.553Z,5.63
2022-11-10T10:53:43.456Z,5.60
2022-11-10T10:56:23.530Z,4.90
2022-11-10T10:58:55.597Z,5.13
2022-11-10T11:01:31.788Z,6.10
2022-11-10T11:04:01.648Z,5.43
2022-11-10T11:06:38.569Z,4.40
2022-11-10T11:09:13.593Z,4.70
2022-11-10T11:12:00.867Z,5.03
2022-11-10T11:15:34.550Z,5.10
2022-11-10T11:18:05.290Z,4.83
2022-11-10T11:24:24.470Z,4.50
2022-11-10T11:27:00.396Z,4.70
2022-11-10T11:29:52.325Z,4.53
2022-11-10T11:32:32.812Z,4.30
2022-11-10T11:35:13.721Z,4.00
2022-11-10T11:44:42.487Z,4.73
2022-11-10T11:51:25.440Z,4.23
2022-11-10T11:54:24.892Z,3.80
2022-11-10T11:57:55.947Z,4.47
2022-11-10T12:04:43.598Z,3.90
2022-11-10T12:07:25.329Z,3.70
2022-11-10T12:10:01.634Z,3.13
2022-11-10T12:12:50.373Z,4.20
2022-11-10T12:15:32.515Z,3.40
2022-11-10T12:18:13.296Z,4.20
2022-11-10T12:20:54.802Z,4.13
2022-11-10T12:23:34.325Z,3.30
2022-11-10T12:26:16.064Z,2.90
2022-11-10T12:28:49.082Z,2.83
2022-11-10T12:31:23.687Z,3.10
2022-11-10T12:33:56.304Z,3.50
2022-11-10T12:36:30.143Z,4.20
2022-11-10T12:39:04.694Z,3.50
2022-11-10T12:41:43.841Z,3.20
2022-11-10T12:44:22.178Z,3.63
2022-11-10T12:46:53.942Z,2.60
2022-11-10T12:49:34.602Z,3.23
2022-11-10T12:52:13.663Z,3.10
2022-11-10T12:54:43.943Z,2.83
2022-11-10T12:57:18.396Z,2.87
2022-11-10T12:59:56.015Z,3.20
2022-11-10T13:02:30.492Z,3.03
2022-11-10T13:05:36.474Z,2.80
2022-11-10T13:08:39.492Z,2.83
2022-11-10T13:11:21.716Z,2.97
2022-11-10T13:13:59.515Z,2.90
2022-11-10T13:16:49.562Z,2.63
2022-11-10T13:19:52.395Z,2.27
2022-11-10T13:22:37.140Z,2.77
2022-11-10T13:25:54.897Z,2.63
2022-11-10T13:28:58.073Z,2.60
2022-11-10T13:31:54.348Z,2.00
2022-11-10T13:34:34.341Z,2.80
2022-11-10T13:37:03.585Z,3.00
2022-11-10T13:39:34.175Z,3.13
2022-11-10T13:42:27.899Z,2.37
2022-11-10T13:45:19.503Z,2.23
2022-11-10T13:48:00.901Z,2.57
2022-11-10T13:50:49.264Z,2.87
2022-11-10T13:53:33.641Z,3.27
2022-11-10T13:56:14.030Z,2.90
2022-11-10T13:58:47.507Z,2.00
2022-11-10T14:01:30.981Z,2.83
2022-11-10T14:04:03.696Z,3.00
2022-11-10T14:06:43.624Z,2.13
2022-11-10T14:09:26.247Z,2.20
2022-11-10T14:12:00.361Z,2.43
2022-11-10T14:14:37.318Z,2.10
2022-11-10T14:17:15.158Z,2.60
2022-11-10T14:20:06.642Z,2.00
2022-11-10T14:22:40.673Z,3.07
2022-11-10T14:25:21.756Z,2.57
2022-11-10T14:27:58.232Z,2.83
2022-11-10T14:30:29.708Z,2.63
2022-11-10T14:33:01.411Z,2.70
2022-11-10T14:35:31.418Z,2.37
2022-11-10T14:38:01.057Z,2.90
2022-11-10T14:40:30.070Z,2.60
2022-11-10T14:42:59.894Z,2.70
2022-11-10T14:45:30.692Z,2.30
2022-11-10T14:48:00.710Z,2.40
2022-11-10T14:50:31.917Z,2.93
2022-11-10T14:53:04.552Z,2.20
2022-11-10T14:55:37.003Z,2.30
2022-11-10T14:58:19.384Z,3.00
2022-11-10T15:00:51.609Z,2.67
2022-11-10T15:03:34.637Z,2.60
2022-11-10T15:06:05.154Z,2.70
2022-11-10T15:08:33.840Z,2.03
2022-11-10T15:11:03.050Z,2.50
2022-11-10T15:13:51.565Z,3.80
2022-11-10T15:16:33.749Z,2.60
2022-11-10T15:19:40.135Z,2.70
2022-11-10T15:22:19.157Z,5.40
2022-11-10T15:24:51.936Z,3.30
2022-11-10T15:27:40.659Z,2.10
2022-11-10T15:30:24.446Z,2.60
2022-11-10T15:33:13.478Z,2.60
2022-11-10T15:35:42.111Z,2.50
2022-11-10T15:38:30.842Z,2.30
2022-11-10T15:41:24.162Z,2.60
2022-11-10T15:43:55.054Z,4.03
2022-11-10T15:46:27.456Z,2.63
2022-11-10T15:49:26.107Z,3.53
2022-11-10T15:52:19.299Z,4.10
2022-11-10T15:54:49.540Z,2.93
2022-11-10T15:57:25.678Z,3.47
2022-11-10T15:59:55.841Z,2.80
2022-11-10T16:02:26.999Z,3.20
2022-11-10T16:05:00.007Z,3.40
2022-11-10T16:07:31.581Z,3.23
2022-11-10T16:09:59.868Z,4.27
2022-11-10T16:12:30.014Z,4.00
2022-11-10T16:14:59.407Z,4.00
2022-11-10T16:17:28.019Z,3.77
2022-11-10T16:19:57.746Z,3.23
2022-11-10T16:22:27.605Z,2.40
2022-11-10T16:24:56.101Z,3.77
2022-11-10T16:27:25.436Z,3.60
2022-11-10T16:29:54.380Z,7.40
2022-11-10T16:32:23.002Z,5.80
2022-11-10T16:34:52.011Z,4.90
2022-11-10T16:37:23.181Z,4.30
2022-11-10T16:39:54.257Z,4.03
2022-11-10T16:42:22.453Z,4.20
2022-11-10T16:44:50.597Z,5.40
2022-11-10T16:47:20.811Z,5.20
2022-11-10T16:49:50.948Z,6.37
2022-11-10T16:52:29.418Z,5.10
2022-11-10T16:55:10.889Z,6.57
2022-11-10T16:57:41.410Z,5.77
2022-11-10T17:00:15.206Z,5.57
2022-11-10T17:19:11.797Z,12.43
2022-11-10T17:21:48.332Z,7.97
2022-11-10T17:24:30.461Z,8.10
2022-11-10T17:30:58.323Z,6.60
2022-11-10T17:33:57.183Z,8.77
2022-11-10T17:36:27.247Z,7.83
2022-11-10T17:39:15.400Z,8.67
2022-11-10T17:41:57.003Z,10.43
2022-11-10T17:48:03.151Z,8.00
2022-11-10T18:02:05.895Z,9.83
2022-11-10T18:04:57.619Z,8.07
2022-11-10T18:07:26.653Z,7.93
2022-11-10T18:10:53.406Z,8.17
2022-11-10T18:13:57.977Z,7.83
2022-11-10T18:24:01.332Z,8.93
2022-11-10T18:27:06.367Z,6.93
2022-11-10T18:29:36.502Z,5.63
2022-11-10T18:32:08.469Z,7.07
2022-11-10T18:34:37.286Z,12.70
2022-11-10T18:37:05.497Z,6.53
2022-11-10T18:39:36.586Z,6.67
2022-11-10T18:42:06.895Z,6.70
2022-11-10T18:44:45.359Z,7.10
2022-11-10T18:59:53.426Z,8.90
2022-11-10T19:03:28.874Z,8.53
2022-11-10T19:15:16.476Z,9.30
2022-11-10T19:22:39.685Z,14.03
2022-11-10T19:25:21.405Z,14.40
2022-11-10T19:28:10.155Z,15.00
2022-11-10T19:31:00.985Z,12.37
2022-11-10T19:39:35.817Z,7.63
2022-11-10T19:41:38.259Z,7.60
2022-11-10T19:48:44.170Z,6.07
2022-11-10T19:51:32.649Z,5.60
2022-11-10T19:54:09.003Z,5.60
2022-11-10T19:57:40.106Z,6.40
2022-11-10T20:00:16.909Z,6.17
2022-11-10T20:02:48.599Z,5.60
2022-11-10T20:05:18.494Z,7.10
2022-11-10T20:10:55.343Z,6.00
2022-11-10T20:13:28.680Z,6.17
2022-11-10T20:19:28.837Z,6.07
2022-11-10T20:21:57.863Z,6.47
2022-11-10T20:24:33.083Z,7.03
2022-11-10T20:27:21.379Z,6.90
2022-11-10T20:29:49.726Z,6.37
2022-11-10T20:32:20.740Z,7.20
2022-11-10T20:34:53.497Z,7.90
2022-11-10T20:37:22.778Z,7.00
2022-11-10T20:39:51.226Z,6.63
2022-11-10T20:42:23.267Z,7.70
2022-11-10T20:44:52.829Z,7.10
2022-11-10T20:47:23.131Z,6.87
2022-11-10T20:49:51.646Z,6.83
2022-11-10T20:52:19.944Z,7.30
2022-11-10T20:54:48.843Z,7.47
2022-11-10T20:57:17.134Z,6.77
2022-11-10T20:59:46.252Z,6.53
2022-11-10T21:02:15.167Z,7.90
2022-11-10T21:04:44.753Z,7.50
2022-11-10T21:07:15.009Z,7.03
2022-11-10T21:09:43.272Z,6.97
2022-11-10T21:12:30.699Z,7.57
2022-11-10T21:14:59.137Z,8.40
2022-11-10T21:17:28.049Z,7.97
2022-11-10T21:20:00.003Z,8.00
2022-11-10T21:22:30.300Z,7.33
2022-11-10T21:24:59.085Z,7.77
2022-11-10T21:27:28.512Z,7.70
2022-11-10T21:29:58.257Z,8.27
2022-11-10T21:32:26.706Z,8.67
2022-11-10T21:34:55.075Z,8.37
2022-11-10T21:37:28.187Z,8.40
2022-11-10T21:39:59.350Z,9.47
2022-11-10T21:42:31.576Z,9.87
2022-11-10T21:45:05.124Z,9.20
2022-11-10T21:47:33.614Z,8.90
2022-11-10T21:50:01.900Z,8.77
2022-11-10T21:52:34.289Z,8.93
2022-11-10T21:55:05.649Z,9.57
2022-11-10T21:57:33.836Z,10.80
2022-11-10T22:00:02.315Z,11.93
2022-11-10T22:02:30.725Z,11.00
2022-11-10T22:05:02.070Z,12.60
2022-11-10T22:07:34.690Z,10.70
2022-11-10T22:10:20.214Z,12.10
2022-11-10T22:13:05.577Z,10.73
2022-11-10T22:15:51.668Z,10.27
2022-11-10T22:18:38.760Z,8.70
2022-11-10T22:21:09.005Z,9.37
2022-11-10T22:23:58.908Z,9.50
2022-11-10T22:26:34.788Z,11.23
2022-11-10T22:29:10.352Z,10.00
2022-11-10T22:31:39.732Z,9.90
2022-11-10T22:34:17.342Z,35.00
2022-11-10T22:37:07.522Z,14.00
2022-11-10T22:39:54.991Z,10.77
2022-11-10T22:42:40.635Z,10.00
2022-11-10T22:45:10.159Z,9.43
2022-11-10T22:47:55.841Z,9.90
2022-11-10T22:50:25.150Z,9.10
2022-11-10T22:52:55.023Z,9.87
2022-11-10T22:55:25.056Z,9.80
2022-11-10T22:57:56.759Z,8.40
2022-11-10T23:00:40.676Z,8.63
2022-11-10T23:03:11.645Z,7.10
2022-11-10T23:05:40.293Z,9.03
2022-11-10T23:08:11.255Z,8.70
2022-11-10T23:10:41.335Z,8.10
2022-11-10T23:13:09.339Z,8.50
2022-11-10T23:15:39.956Z,7.63
2022-11-10T23:18:08.528Z,7.87
2022-11-10T23:20:37.033Z,6.77
2022-11-10T23:23:05.316Z,8.03
2022-11-10T23:25:33.855Z,7.70
2022-11-10T23:28:03.276Z,7.90
2022-11-10T23:30:34.173Z,7.53
2022-11-10T23:33:02.685Z,9.57
2022-11-10T23:35:32.980Z,6.93
2022-11-10T23:38:01.530Z,8.13
2022-11-10T23:40:29.808Z,8.00
2022-11-10T23:42:59.981Z,8.20
2022-11-10T23:46:00.107Z,8.00
2022-11-10T23:48:18.310Z,7.80
2022-11-10T23:50:46.767Z,8.70
2022-11-10T23:53:15.717Z,9.40
2022-11-10T23:55:44.411Z,8.77
2022-11-10T23:58:13.180Z,8.43
